Time;durP1;ratioP1;P1;durP2;ratioP2;P2;SDS_P1;SDS_P2;PMS_P1;PMS_P2;Temp;Humidity;BMP_temperature;BMP_pressure;BME280_temperature;BME280_humidity;BME280_pressure;Samples;Min_cycle;Max_cycle;Signal;HPM_P1;HPM_P2
2024/01/05 00:00:38;;;;;;;1.60;0.90;;;;;;;9.80;100.00;101030.84;2078041;28;20197;-68
2024/01/05 00:01:39;;;;;;;1.57;1.00;;;;;;;9.73;100.00;101030.94;2077262;28;20610;-68
2024/01/05 00:02:39;;;;;;;1.03;0.77;;;;;;;9.79;100.00;101031.25;2075929;28;20706;-68
2024/01/05 00:03:40;;;;;;;1.07;0.70;;;;;;;9.77;100.00;101033.66;2075914;28;20201;-69
2024/01/05 00:04:40;;;;;;;0.83;0.60;;;;;;;9.73;100.00;101035.72;2076942;28;20201;-68
2024/01/05 00:05:41;;;;;;;1.07;0.50;;;;;;;9.68;100.00;101036.94;2078112;28;20185;-68
2024/01/05 00:06:41;;;;;;;1.43;0.80;;;;;;;9.63;100.00;101045.69;2076960;28;20196;-68
2024/01/05 00:07:43;;;;;;;2.30;1.00;;;;;;;8.89;100.00;100940.00;2077441;28;20194;-68
2024/01/05 00:08:43;;;;;;;1.50;0.63;;;;;;;9.61;100.00;101045.34;2077408;28;20597;-68
2024/01/05 00:09:44;;;;;;;2.40;0.73;;;;;;;9.59;100.00;101053.25;2076443;28;20474;-68
2024/01/05 00:10:44;;;;;;;1.53;0.70;;;;;;;9.64;100.00;101052.03;2076626;28;20545;-68
2024/01/05 00:11:47;;;;;;;1.27;0.73;;;;;;;9.41;100.00;101027.81;2078331;28;20186;-68
2024/01/05 00:12:47;;;;;;;1.20;0.73;;;;;;;9.63;100.00;101050.47;2077657;28;20594;-68
2024/01/05 00:13:48;;;;;;;2.20;0.97;;;;;;;9.63;100.00;101059.53;2076702;28;20491;-68
2024/01/05 00:14:49;;;;;;;1.43;0.80;;;;;;;9.26;100.00;100995.22;2076847;28;20201;-68
2024/01/05 00:15:49;;;;;;;1.63;0.67;;;;;;;9.65;100.00;101053.59;2076493;28;21004;-68
2024/01/05 00:16:50;;;;;;;1.47;0.80;;;;;;;9.53;100.00;101037.56;2076509;28;20723;-68
2024/01/05 00:17:50;;;;;;;1.23;0.70;;;;;;;9.64;100.00;101057.56;2077555;28;20197;-68
2024/01/05 00:19:09;;;;;;;1.57;0.90;;;;;;;9.62;100.00;101055.22;2077039;28;20220;-68
2024/01/05 00:20:11;;;;;;;0.70;0.67;;;;;;;9.62;100.00;101057.19;2077216;28;20264;-67
2024/01/05 00:21:26;;;;;;;1.07;0.60;;;;;;;9.15;100.00;100981.53;2076310;28;21814;-68
2024/01/05 00:22:26;;;;;;;2.97;0.90;;;;;;;9.68;100.00;101059.06;2076223;28;20456;-68
2024/01/05 00:23:26;;;;;;;1.97;0.80;;;;;;;9.71;100.00;101058.25;2076889;28;20446;-68
2024/01/05 00:24:27;;;;;;;1.17;0.73;;;;;;;9.69;100.00;101063.41;2076455;28;20754;-68
2024/01/05 00:25:28;;;;;;;1.53;0.80;;;;;;;9.78;100.00;101065.69;2076604;28;20676;-68
2024/01/05 00:26:28;;;;;;;1.97;0.80;;;;;;;9.79;100.00;101064.47;2076498;28;20250;-68
2024/01/05 00:27:29;;;;;;;1.30;0.90;;;;;;;9.81;100.00;101064.84;2078069;28;20216;-68
2024/01/05 00:28:30;;;;;;;1.43;1.00;;;;;;;9.14;100.00;100966.16;2076694;28;20215;-68
2024/01/05 00:29:30;;;;;;;1.40;0.70;;;;;;;9.79;100.00;101059.72;2076014;28;20295;-68
2024/01/05 00:30:34;;;;;;;2.80;0.83;;;;;;;9.15;100.00;100951.13;2076757;28;20206;-68
2024/01/05 00:31:34;;;;;;;1.03;0.70;;;;;;;9.89;100.00;101064.31;2076473;28;20195;-68
2024/01/05 00:32:35;;;;;;;0.80;0.70;;;;;;;9.96;100.00;101058.69;2077102;28;20534;-68
2024/01/05 00:33:35;;;;;;;0.67;0.60;;;;;;;9.98;100.00;101063.78;2078461;28;20193;-68
2024/01/05 00:34:36;;;;;;;1.80;0.77;;;;;;;9.94;100.00;101068.63;2076160;28;20191;-68
2024/01/05 00:35:36;;;;;;;1.30;0.60;;;;;;;9.97;100.00;101062.22;2076046;28;20621;-68
2024/01/05 00:36:37;;;;;;;1.87;0.90;;;;;;;9.92;100.00;101065.47;2076470;28;20716;-68
2024/01/05 00:37:38;;;;;;;2.27;1.13;;;;;;;9.94;100.00;101060.31;2076654;28;20201;-68
2024/01/05 00:38:41;;;;;;;1.57;1.00;;;;;;;9.95;100.00;101053.56;2076205;28;20243;-68
2024/01/05 00:39:41;;;;;;;1.73;1.03;;;;;;;9.99;100.00;101065.38;2077378;28;20185;-68
2024/01/05 00:40:42;;;;;;;3.33;1.33;;;;;;;9.94;100.00;101066.63;2077049;28;20460;-68
2024/01/05 00:41:46;;;;;;;2.33;0.90;;;;;;;9.91;100.00;101066.69;2076784;28;20301;-68
2024/01/05 00:42:46;;;;;;;2.50;0.73;;;;;;;9.92;100.00;101062.69;2076206;28;20208;-68
2024/01/05 00:43:47;;;;;;;2.83;0.93;;;;;;;9.77;100.00;101041.94;2076238;28;20483;-68
2024/01/05 00:44:47;;;;;;;2.53;1.33;;;;;;;9.88;100.00;101065.53;2077588;28;20193;-68
2024/01/05 00:45:48;;;;;;;1.73;0.80;;;;;;;9.82;100.00;101047.03;2077895;28;20199;-68
2024/01/05 00:46:48;;;;;;;1.10;0.90;;;;;;;9.91;100.00;101066.69;2076667;28;20275;-68
2024/01/05 00:47:49;;;;;;;1.97;1.00;;;;;;;9.97;100.00;101068.56;2075511;28;20673;-69
2024/01/05 00:48:49;;;;;;;1.60;1.00;;;;;;;9.95;100.00;101070.94;2075629;28;20195;-68
2024/01/05 00:49:50;;;;;;;1.97;1.00;;;;;;;9.95;100.00;101070.94;2075780;28;20199;-68
2024/01/05 00:50:50;;;;;;;2.23;0.90;;;;;;;9.96;100.00;101078.06;2076450;28;20196;-68
2024/01/05 00:51:51;;;;;;;2.47;0.87;;;;;;;9.94;100.00;101066.63;2077768;28;20199;-69
2024/01/05 00:52:51;;;;;;;1.73;0.77;;;;;;;9.98;100.00;101077.63;2076204;28;20348;-68
2024/01/05 00:53:52;;;;;;;2.57;0.93;;;;;;;9.99;100.00;101070.91;2076016;28;20378;-68
2024/01/05 00:54:52;;;;;;;2.30;0.90;;;;;;;10.00;100.00;101078.03;2076273;28;21681;-68
2024/01/05 00:55:53;;;;;;;1.30;0.70;;;;;;;9.01;100.00;100915.34;2075572;28;20696;-68
2024/01/05 00:56:53;;;;;;;2.30;1.07;;;;;;;9.92;100.00;101071.81;2076402;28;20569;-69
2024/01/05 00:57:53;;;;;;;0.90;0.70;;;;;;;10.03;100.00;101077.97;2077698;28;21113;-68
2024/01/05 00:58:54;;;;;;;1.83;0.90;;;;;;;10.02;100.00;101073.63;2075299;28;20648;-68
2024/01/05 00:59:55;;;;;;;1.27;0.70;;;;;;;9.52;100.00;101002.75;2075337;28;20568;-68
2024/01/05 01:00:55;;;;;;;1.27;0.90;;;;;;;9.41;100.00;100991.84;2076251;28;20646;-68
2024/01/05 01:01:56;;;;;;;1.53;0.70;;;;;;;9.92;100.00;101054.41;2076200;28;20188;-68
2024/01/05 01:02:57;;;;;;;3.30;1.13;;;;;;;9.96;100.00;101063.44;2075263;28;20183;-68
2024/01/05 01:03:58;;;;;;;1.90;0.70;;;;;;;9.99;100.00;101104.16;2078087;28;20431;-68
2024/01/05 01:04:59;;;;;;;1.90;1.00;;;;;;;10.00;100.00;101080.78;2076250;28;20242;-68
2024/01/05 01:05:59;;;;;;;0.70;0.57;;;;;;;10.01;100.00;101079.59;2075097;28;20193;-68
2024/01/05 01:07:00;;;;;;;2.83;0.90;;;;;;;9.97;100.00;101084.38;2075624;28;20484;-68
2024/01/05 01:08:00;;;;;;;1.67;0.80;;;;;;;9.98;100.00;101080.41;2076068;28;20182;-68
2024/01/05 01:09:01;;;;;;;4.23;0.90;;;;;;;9.90;100.00;101073.41;2075457;28;20936;-68
2024/01/05 01:10:02;;;;;;;1.03;0.70;;;;;;;9.92;100.00;101082.06;2076858;28;20670;-68
2024/01/05 01:11:03;;;;;;;1.20;0.73;;;;;;;9.90;100.00;101079.72;2076170;28;20600;-68
2024/01/05 01:12:04;;;;;;;1.67;0.80;;;;;;;9.84;100.00;101089.69;2075544;28;20211;-68
2024/01/05 01:13:05;;;;;;;3.07;0.80;;;;;;;9.85;100.00;101088.50;2074594;28;20479;-68
2024/01/05 01:14:06;;;;;;;2.17;0.90;;;;;;;9.77;100.00;101091.78;2075592;28;20240;-68
2024/01/05 01:15:06;;;;;;;1.60;0.90;;;;;;;9.33;100.00;101015.25;2075883;28;20427;-68
2024/01/05 01:16:07;;;;;;;1.77;0.60;;;;;;;9.06;100.00;100977.69;2077925;28;20652;-68
2024/01/05 01:17:08;;;;;;;2.40;0.63;;;;;;;9.70;100.00;101080.81;2075984;28;20194;-68
2024/01/05 01:18:08;;;;;;;2.30;0.70;;;;;;;9.76;100.00;101091.00;2075208;28;20202;-68
2024/01/05 01:19:09;;;;;;;3.27;0.83;;;;;;;9.74;100.00;101090.63;2074959;28;20220;-68
2024/01/05 01:20:09;;;;;;;2.23;0.80;;;;;;;8.80;100.00;100953.50;2075295;28;20194;-68
2024/01/05 01:21:10;;;;;;;1.30;0.60;;;;;;;9.71;100.00;101094.22;2076460;28;20183;-68
2024/01/05 01:22:10;;;;;;;3.10;0.67;;;;;;;9.74;100.00;101098.91;2077553;28;20198;-68
2024/01/05 01:23:11;;;;;;;1.00;0.63;;;;;;;9.00;100.00;100979.34;2075806;28;20279;-68
2024/01/05 01:24:11;;;;;;;1.27;0.80;;;;;;;9.73;100.00;101100.13;2076134;28;20193;-68
2024/01/05 01:25:12;;;;;;;1.00;0.53;;;;;;;9.25;100.00;101024.06;2075609;28;20678;-68
2024/01/05 01:26:13;;;;;;;0.80;0.60;;;;;;;9.72;100.00;101100.53;2076210;28;20667;-68
2024/01/05 01:27:14;;;;;;;1.07;0.63;;;;;;;9.63;100.00;101094.75;2076320;28;20264;-68
2024/01/05 01:28:14;;;;;;;1.60;0.80;;;;;;;9.64;100.00;101107.38;2077731;28;20741;-68
2024/01/05 01:29:15;;;;;;;1.33;0.90;;;;;;;9.63;100.00;101101.03;2075362;28;20872;-68
2024/01/05 01:30:15;;;;;;;1.27;0.70;;;;;;;9.59;100.00;101107.84;2075771;28;20206;-68
2024/01/05 01:31:16;;;;;;;1.00;0.77;;;;;;;9.63;100.00;101100.28;2077014;28;20620;-68
2024/01/05 01:32:16;;;;;;;1.13;0.80;;;;;;;9.47;100.00;101105.59;2077908;28;20268;-68
2024/01/05 01:33:17;;;;;;;2.43;1.03;;;;;;;9.42;100.00;101109.59;2077688;28;20181;-68
2024/01/05 01:34:17;;;;;;;2.93;0.60;;;;;;;8.32;100.00;100930.75;2079070;28;20188;-68
2024/01/05 01:35:18;;;;;;;0.80;0.60;;;;;;;9.56;100.00;101120.50;2077398;28;20189;-68
2024/01/05 01:36:18;;;;;;;1.40;0.63;;;;;;;9.52;100.00;101117.00;2077089;28;20193;-68
2024/01/05 01:37:19;;;;;;;1.07;0.67;;;;;;;9.48;100.00;101116.25;2077627;28;20243;-68
2024/01/05 01:38:19;;;;;;;1.30;0.80;;;;;;;9.55;100.00;101118.94;2077559;28;20219;-68
2024/01/05 01:39:20;;;;;;;2.00;0.70;;;;;;;9.18;100.00;101060.09;2076798;28;20188;-68
2024/01/05 01:40:20;;;;;;;0.93;0.53;;;;;;;9.54;100.00;101120.13;2079309;28;20192;-68
2024/01/05 01:41:21;;;;;;;2.00;0.83;;;;;;;8.91;100.00;101026.81;2077769;28;20193;-68
2024/01/05 01:42:21;;;;;;;1.77;0.73;;;;;;;9.19;100.00;101053.38;2077929;28;20190;-68
2024/01/05 01:43:25;;;;;;;1.80;0.70;;;;;;;9.65;100.00;101112.50;2077710;28;20224;-68
2024/01/05 01:44:26;;;;;;;1.87;0.80;;;;;;;9.60;100.00;101103.84;2077704;28;20239;-67
2024/01/05 01:45:27;;;;;;;1.20;0.70;;;;;;;9.59;100.00;101099.53;2078128;28;20453;-69
2024/01/05 01:46:29;;;;;;;1.43;0.60;;;;;;;9.78;100.00;101118.28;2079144;28;20185;-68
2024/01/05 01:47:29;;;;;;;2.13;0.67;;;;;;;9.74;100.00;101125.84;2077597;28;20251;-68
2024/01/05 01:48:30;;;;;;;1.27;0.70;;;;;;;9.81;100.00;101120.19;2078300;28;20504;-68
2024/01/05 01:49:31;;;;;;;0.67;0.50;;;;;;;9.86;100.00;101119.72;2077038;28;20710;-68
2024/01/05 01:50:31;;;;;;;1.60;0.47;;;;;;;9.82;100.00;101122.56;2077126;28;20206;-68
2024/01/05 01:51:32;;;;;;;1.70;0.63;;;;;;;9.85;100.00;101118.16;2077006;28;20189;-68
2024/01/05 01:52:36;;;;;;;2.17;0.70;;;;;;;9.82;100.00;101122.56;2079429;28;20562;-68
2024/01/05 01:53:37;;;;;;;0.73;0.60;;;;;;;9.82;100.00;101124.53;2076834;28;20848;-68
2024/01/05 01:54:38;;;;;;;0.63;0.60;;;;;;;9.13;100.00;101032.91;2077947;28;20887;-68
2024/01/05 01:55:41;;;;;;;1.20;0.60;;;;;;;9.74;100.00;101126.59;2077122;28;20455;-68
2024/01/05 01:56:44;;;;;;;0.60;0.50;;;;;;;9.20;100.00;101038.34;2077601;28;20446;-68
2024/01/05 01:57:45;;;;;;;2.53;0.67;;;;;;;9.78;100.00;101119.03;2076328;28;20424;-68
2024/01/05 01:58:46;;;;;;;1.43;0.70;;;;;;;9.87;100.00;101124.88;2076656;28;20996;-68
2024/01/05 01:59:47;;;;;;;1.50;0.60;;;;;;;9.22;100.00;101022.16;2078364;28;20563;-68
2024/01/05 02:00:49;;;;;;;2.40;0.80;;;;;;;9.99;100.00;101131.84;2078069;28;20205;-68
2024/01/05 02:01:50;;;;;;;1.23;0.70;;;;;;;9.88;100.00;101112.59;2076765;28;20448;-68
2024/01/05 02:02:53;;;;;;;2.27;0.80;;;;;;;9.40;100.00;101047.59;2077799;28;20455;-68
2024/01/05 02:03:54;;;;;;;0.70;0.40;;;;;;;9.33;100.00;101023.56;2077152;28;21112;-68
2024/01/05 02:04:56;;;;;;;0.50;0.50;;;;;;;9.95;100.00;101129.09;2077134;28;20429;-68
2024/01/05 02:05:57;;;;;;;1.50;0.90;;;;;;;9.88;100.00;101114.56;2079361;28;20679;-68
2024/01/05 02:06:57;;;;;;;1.40;0.83;;;;;;;9.27;100.00;101036.28;2077554;28;21197;-68
2024/01/05 02:07:58;;;;;;;1.50;0.70;;;;;;;9.93;100.00;101134.28;2078308;28;20662;-68
2024/01/05 02:08:58;;;;;;;1.93;0.60;;;;;;;9.78;100.00;101104.44;2077315;28;20190;-68
2024/01/05 02:09:59;;;;;;;1.07;0.57;;;;;;;9.94;100.00;101132.28;2076557;28;20198;-68
2024/01/05 02:10:59;;;;;;;2.27;0.90;;;;;;;9.56;100.00;101075.44;2077675;28;20186;-68
2024/01/05 02:12:00;;;;;;;2.27;0.70;;;;;;;9.94;100.00;101135.84;2079430;28;20264;-68
2024/01/05 02:13:00;;;;;;;1.07;0.70;;;;;;;9.94;100.00;101129.53;2077271;28;20194;-68
2024/01/05 02:14:01;;;;;;;2.50;0.70;;;;;;;9.47;100.00;101061.31;2077796;28;20613;-68
2024/01/05 02:15:02;;;;;;;1.40;0.77;;;;;;;9.98;100.00;101144.09;2077186;28;20290;-68
2024/01/05 02:16:03;;;;;;;1.30;0.60;;;;;;;9.79;100.00;101112.31;2076993;28;20754;-68
2024/01/05 02:17:03;;;;;;;1.60;0.80;;;;;;;10.00;100.00;101138.94;2076678;28;20204;-68
2024/01/05 02:18:14;;;;;;;1.07;0.73;;;;;;;9.99;100.00;101137.38;2079047;28;20264;-68
2024/01/05 02:19:14;;;;;;;1.30;0.60;;;;;;;10.00;100.00;101136.94;2077981;28;20690;-68
2024/01/05 02:20:15;;;;;;;1.13;0.50;;;;;;;9.87;100.00;101146.22;2076882;28;20821;-68
2024/01/05 02:21:16;;;;;;;2.00;0.50;;;;;;;9.98;100.00;101133.00;2077696;28;20360;-69
2024/01/05 02:22:17;;;;;;;2.47;0.90;;;;;;;9.98;100.00;101138.56;2077666;28;20199;-68
2024/01/05 02:23:30;;;;;;;1.93;0.87;;;;;;;9.97;100.00;101136.97;2077498;28;20630;-67
2024/01/05 02:24:31;;;;;;;1.30;0.73;;;;;;;9.39;100.00;101037.72;2077427;28;20204;-68
2024/01/05 02:25:31;;;;;;;1.50;0.50;;;;;;;9.93;100.00;101122.41;2077050;28;20989;-68
2024/01/05 02:26:32;;;;;;;1.23;0.70;;;;;;;9.91;100.00;101127.59;2078471;28;20843;-68
2024/01/05 02:27:33;;;;;;;1.50;0.80;;;;;;;9.86;100.00;101122.50;2077091;28;20199;-68
2024/01/05 02:28:37;;;;;;;4.27;0.97;;;;;;;9.88;100.00;101126.44;2077355;28;20208;-68
2024/01/05 02:29:37;;;;;;;1.53;0.57;;;;;;;9.90;100.00;101126.78;2075783;28;20588;-68
2024/01/05 02:30:38;;;;;;;1.47;0.60;;;;;;;9.85;100.00;101130.00;2076483;28;21748;-68
2024/01/05 02:31:38;;;;;;;1.00;0.77;;;;;;;9.86;100.00;101122.50;2077081;28;20185;-68
2024/01/05 02:32:38;;;;;;;1.10;0.70;;;;;;;9.87;100.00;101135.94;2078603;28;21021;-68
2024/01/05 02:33:39;;;;;;;1.60;0.60;;;;;;;9.88;100.00;101137.50;2076751;28;20687;-68
2024/01/05 02:34:39;;;;;;;2.80;0.70;;;;;;;9.92;100.00;101143.78;2077658;28;20674;-68
2024/01/05 02:35:40;;;;;;;0.77;0.50;;;;;;;9.93;100.00;101130.72;2077198;28;20616;-68
2024/01/05 02:36:41;;;;;;;2.73;0.53;;;;;;;9.88;100.00;101131.16;2076838;28;20771;-68
2024/01/05 02:37:43;;;;;;;0.87;0.50;;;;;;;9.53;100.00;101079.81;2077004;28;20553;-68
2024/01/05 02:38:43;;;;;;;1.17;0.60;;;;;;;9.83;100.00;101146.25;2078895;28;20197;-68
2024/01/05 02:39:44;;;;;;;1.20;0.60;;;;;;;9.81;100.00;101137.59;2076986;28;20468;-68
2024/01/05 02:40:45;;;;;;;4.13;0.70;;;;;;;9.85;100.00;101143.09;2076736;28;20196;-68
2024/01/05 02:41:45;;;;;;;1.57;0.60;;;;;;;9.66;100.00;101114.06;2075820;28;20190;-68
2024/01/05 02:42:46;;;;;;;0.73;0.40;;;;;;;9.83;100.00;101146.25;2076459;28;20235;-68
2024/01/05 02:43:47;;;;;;;1.57;0.97;;;;;;;9.79;100.00;101136.44;2077211;28;20186;-68
2024/01/05 02:44:47;;;;;;;1.30;0.50;;;;;;;9.81;100.00;101143.13;2078743;28;20427;-68
2024/01/05 02:45:48;;;;;;;1.23;0.70;;;;;;;9.88;100.00;101136.69;2076965;28;20197;-68
2024/01/05 02:46:48;;;;;;;1.50;0.70;;;;;;;9.81;100.00;101134.03;2075990;28;20635;-68
2024/01/05 02:47:49;;;;;;;1.27;0.70;;;;;;;9.87;100.00;101141.47;2076529;28;20678;-68
2024/01/05 02:48:50;;;;;;;1.80;0.60;;;;;;;9.93;100.00;101136.25;2076702;28;20206;-69
2024/01/05 02:49:50;;;;;;;1.30;0.60;;;;;;;9.87;100.00;101135.13;2075929;28;20269;-68
2024/01/05 02:50:51;;;;;;;0.87;0.60;;;;;;;9.85;100.00;101132.78;2078502;28;20187;-68
2024/01/05 02:51:51;;;;;;;1.50;0.80;;;;;;;9.75;100.00;101175.25;2075951;28;20682;-68
2024/01/05 02:52:52;;;;;;;1.00;0.63;;;;;;;9.77;100.00;101141.59;2075933;28;20250;-68
2024/01/05 02:53:52;;;;;;;2.67;0.70;;;;;;;9.81;100.00;101150.66;2077346;28;20185;-68
2024/01/05 02:54:53;;;;;;;1.87;0.90;;;;;;;9.66;100.00;101136.19;2075827;28;20328;-68
2024/01/05 02:55:53;;;;;;;2.13;0.60;;;;;;;9.80;100.00;101149.88;2075891;28;20667;-68
2024/01/05 02:56:54;;;;;;;0.90;0.67;;;;;;;9.73;100.00;101146.41;2078722;28;20833;-68
2024/01/05 02:57:54;;;;;;;1.20;0.73;;;;;;;9.77;100.00;101156.22;2076642;28;20186;-68
2024/01/05 02:58:55;;;;;;;1.50;0.57;;;;;;;9.76;100.00;101160.19;2076207;28;20236;-68
2024/01/05 02:59:55;;;;;;;1.93;0.70;;;;;;;9.74;100.00;101157.03;2075109;28;20194;-68
2024/01/05 03:00:56;;;;;;;3.30;1.00;;;;;;;9.66;100.00;101154.78;2076780;28;20909;-68
2024/01/05 03:01:56;;;;;;;1.23;0.80;;;;;;;9.62;100.00;101163.13;2076477;28;20260;-68
2024/01/05 03:02:57;;;;;;;2.00;0.90;;;;;;;8.46;100.00;100969.28;2078303;28;20173;-68
2024/01/05 03:04:00;;;;;;;2.57;0.67;;;;;;;9.50;100.00;101132.44;2076916;28;20194;-68
2024/01/05 03:05:01;;;;;;;2.10;0.90;;;;;;;9.61;100.00;101156.03;2076677;28;20811;-68
2024/01/05 03:06:01;;;;;;;1.10;0.57;;;;;;;9.69;100.00;101151.19;2076615;28;21020;-68
2024/01/05 03:07:02;;;;;;;1.23;0.73;;;;;;;9.61;100.00;101147.72;2077147;28;20197;-68
2024/01/05 03:08:03;;;;;;;2.00;0.80;;;;;;;9.67;100.00;101148.84;2076201;28;20189;-68
2024/01/05 03:09:05;;;;;;;1.77;0.70;;;;;;;8.83;100.00;101010.72;2078060;28;20181;-68
2024/01/05 03:10:06;;;;;;;1.50;0.97;;;;;;;9.02;100.00;101044.06;2075444;28;20460;-68
2024/01/05 03:11:07;;;;;;;1.93;0.70;;;;;;;9.75;100.00;101149.53;2077094;28;20445;-68
2024/01/05 03:12:08;;;;;;;2.63;0.67;;;;;;;9.81;100.00;101154.22;2077082;28;20441;-68
2024/01/05 03:13:08;;;;;;;3.33;0.67;;;;;;;9.79;100.00;101153.81;2076171;28;20194;-68
2024/01/05 03:14:09;;;;;;;2.07;0.90;;;;;;;9.86;100.00;101152.94;2075873;28;20592;-68
2024/01/05 03:15:09;;;;;;;0.90;0.57;;;;;;;9.88;100.00;101156.88;2077584;28;20189;-68
2024/01/05 03:16:10;;;;;;;0.97;0.67;;;;;;;9.76;100.00;101156.63;2084315;28;20584;-68
2024/01/05 03:17:10;;;;;;;1.57;0.73;;;;;;;8.92;100.00;101011.81;2083923;28;20200;-68
2024/01/05 03:18:11;;;;;;;1.10;0.70;;;;;;;9.87;100.00;101157.28;2076827;28;20193;-68
2024/01/05 03:19:12;;;;;;;3.03;1.37;;;;;;;9.94;100.00;101159.97;2075111;28;20354;-68
2024/01/05 03:20:12;;;;;;;1.83;0.80;;;;;;;9.84;100.00;101125.69;2076007;28;20187;-68
2024/01/05 03:21:13;;;;;;;2.00;0.63;;;;;;;9.96;100.00;101146.50;2078125;28;20687;-68
2024/01/05 03:22:13;;;;;;;1.67;0.83;;;;;;;10.02;100.00;101151.16;2075595;28;20628;-68
2024/01/05 03:23:15;;;;;;;1.90;0.77;;;;;;;9.99;100.00;101149.22;2067674;28;20335;-68
2024/01/05 03:24:15;;;;;;;3.00;0.70;;;;;;;10.05;100.00;101150.34;2076524;28;20189;-68
2024/01/05 03:25:16;;;;;;;1.00;0.80;;;;;;;10.02;100.00;101151.16;2075825;28;20477;-68
2024/01/05 03:26:16;;;;;;;1.10;0.70;;;;;;;10.06;100.00;101145.59;2076633;28;20180;-68
2024/01/05 03:27:17;;;;;;;0.50;0.43;;;;;;;10.05;100.00;101147.56;2078187;28;20186;-68
2024/01/05 03:28:17;;;;;;;1.60;0.63;;;;;;;10.09;100.00;101145.56;2076506;28;20227;-68
2024/01/05 03:29:18;;;;;;;1.03;0.53;;;;;;;9.80;100.00;101105.59;2075572;28;20187;-68
2024/01/05 03:30:18;;;;;;;1.03;0.60;;;;;;;9.23;100.00;101012.66;2076706;28;20197;-68
2024/01/05 03:31:19;;;;;;;4.33;0.70;;;;;;;10.18;100.00;101151.38;2076624;28;20237;-68
2024/01/05 03:32:20;;;;;;;0.60;0.50;;;;;;;10.17;100.00;101163.66;2076135;28;20185;-67
2024/01/05 03:33:20;;;;;;;0.80;0.50;;;;;;;10.26;100.00;101152.06;2078017;28;20520;-68
2024/01/05 03:34:21;;;;;;;1.87;0.60;;;;;;;9.87;100.00;101094.41;2076650;28;20738;-68
2024/01/05 03:35:22;;;;;;;0.90;0.60;;;;;;;10.29;100.00;101154.78;2076666;28;20199;-68
2024/01/05 03:36:22;;;;;;;1.13;0.53;;;;;;;10.30;100.00;101161.88;2075556;28;20195;-69
2024/01/05 03:37:23;;;;;;;0.70;0.50;;;;;;;10.19;100.00;101160.47;2075439;28;20201;-68
2024/01/05 03:38:23;;;;;;;0.80;0.53;;;;;;;10.28;100.00;101158.75;2076896;28;20184;-68
2024/01/05 03:39:25;;;;;;;1.47;0.60;;;;;;;10.21;100.00;101146.97;2077244;28;20185;-68
2024/01/05 03:40:25;;;;;;;1.03;0.50;;;;;;;10.21;100.00;101149.75;2076336;28;20243;-68
2024/01/05 03:41:26;;;;;;;2.43;0.83;;;;;;;10.30;100.00;101169.41;2076560;28;20440;-68
2024/01/05 03:42:26;;;;;;;1.23;0.70;;;;;;;10.39;100.00;101164.13;2076684;28;20216;-68
2024/01/05 03:43:27;;;;;;;3.43;1.03;;;;;;;10.04;100.00;101134.94;2077234;28;20207;-68
2024/01/05 03:44:28;;;;;;;1.60;0.60;;;;;;;10.38;100.00;101173.63;2075399;28;20192;-68
2024/01/05 03:45:28;;;;;;;1.93;0.67;;;;;;;10.36;100.00;101176.06;2077794;28;20431;-68
2024/01/05 03:46:29;;;;;;;0.90;0.70;;;;;;;10.41;100.00;101170.03;2076912;28;20646;-68
2024/01/05 03:47:29;;;;;;;3.47;0.90;;;;;;;10.41;100.00;101176.34;2076307;28;20274;-68
2024/01/05 03:48:30;;;;;;;0.83;0.70;;;;;;;10.41;100.00;101179.13;2076846;28;20229;-68
2024/01/05 03:49:30;;;;;;;1.90;0.67;;;;;;;10.39;100.00;101164.91;2075955;28;20219;-68
2024/01/05 03:50:31;;;;;;;2.77;0.53;;;;;;;10.43;100.00;101179.50;2076956;28;20187;-67
2024/01/05 03:51:31;;;;;;;0.80;0.50;;;;;;;10.43;100.00;101181.47;2078563;28;20354;-68
2024/01/05 03:52:32;;;;;;;0.90;0.50;;;;;;;10.43;100.00;101176.75;2077134;28;20256;-68
2024/01/05 03:53:32;;;;;;;1.80;0.47;;;;;;;10.38;100.00;101162.56;2075584;28;20203;-68
2024/01/05 03:54:33;;;;;;;3.40;0.80;;;;;;;10.29;100.00;101154.78;2076138;28;20277;-68
2024/01/05 03:55:33;;;;;;;1.23;0.43;;;;;;;10.41;100.00;101178.34;2076388;28;20565;-68
2024/01/05 03:56:47;;;;;;;1.30;0.60;;;;;;;9.97;100.00;101118.41;2076186;28;20701;-68
2024/01/05 03:57:47;;;;;;;0.70;0.47;;;;;;;10.08;100.00;101130.16;2076701;28;20177;-68
2024/01/05 03:58:48;;;;;;;1.40;0.60;;;;;;;10.39;100.00;101177.97;2078133;28;20506;-68
2024/01/05 03:59:48;;;;;;;2.37;0.80;;;;;;;10.41;100.00;101178.34;2075959;28;20200;-68
2024/01/05 04:00:49;;;;;;;1.43;0.60;;;;;;;10.38;100.00;101182.75;2075139;28;20242;-68
2024/01/05 04:01:49;;;;;;;0.63;0.53;;;;;;;10.36;100.00;101181.59;2067738;28;20476;-68
2024/01/05 04:02:50;;;;;;;0.67;0.53;;;;;;;10.31;100.00;101180.06;2075788;28;20180;-68
2024/01/05 04:03:50;;;;;;;1.77;0.80;;;;;;;10.25;100.00;101187.28;2076359;28;20355;-68
2024/01/05 04:04:51;;;;;;;1.90;0.90;;;;;;;10.20;100.00;101187.72;2078152;28;20176;-68
2024/01/05 04:05:51;;;;;;;1.20;0.70;;;;;;;10.14;100.00;101185.88;2076685;28;20708;-68
2024/01/05 04:06:52;;;;;;;1.60;0.73;;;;;;;10.14;100.00;101192.16;2076585;28;20761;-68
2024/01/05 04:07:52;;;;;;;1.73;0.80;;;;;;;10.13;100.00;101195.34;2075789;28;20217;-68
2024/01/05 04:08:53;;;;;;;5.37;0.90;;;;;;;10.06;100.00;101206.53;2075701;28;20188;-68
2024/01/05 04:09:53;;;;;;;1.37;0.70;;;;;;;10.02;100.00;101203.78;2075399;28;20303;-68
2024/01/05 04:10:54;;;;;;;2.77;0.73;;;;;;;10.04;100.00;101197.84;2077644;28;20188;-68
2024/01/05 04:11:54;;;;;;;0.93;0.63;;;;;;;9.75;100.00;101171.69;2075682;28;20221;-67
2024/01/05 04:12:55;;;;;;;0.77;0.57;;;;;;;9.80;100.00;101183.09;2076194;28;20207;-68
2024/01/05 04:13:55;;;;;;;0.87;0.60;;;;;;;9.85;100.00;101204.75;2076348;28;20188;-68
2024/01/05 04:14:56;;;;;;;0.50;0.50;;;;;;;9.86;100.00;101198.03;2076129;28;20187;-68
2024/01/05 04:15:56;;;;;;;1.27;0.60;;;;;;;9.41;100.00;101132.13;2076382;28;20190;-68
2024/01/05 04:16:57;;;;;;;0.53;0.47;;;;;;;9.18;100.00;101099.59;2077491;28;20653;-68
2024/01/05 04:17:58;;;;;;;1.60;0.67;;;;;;;9.87;100.00;101204.34;2076377;28;20575;-68
2024/01/05 04:18:58;;;;;;;2.07;0.67;;;;;;;9.81;100.00;101195.72;2076009;28;20215;-68
2024/01/05 04:19:59;;;;;;;0.60;0.40;;;;;;;9.87;100.00;101207.91;2075120;28;20216;-68
2024/01/05 04:20:59;;;;;;;1.00;0.40;;;;;;;9.88;100.00;101206.72;2075393;28;20219;-68
2024/01/05 04:21:59;;;;;;;0.57;0.40;;;;;;;9.83;100.00;101212.69;2076674;28;20222;-68
2024/01/05 04:23:01;;;;;;;2.20;0.60;;;;;;;9.17;100.00;101100.03;2077234;28;20190;-68
2024/01/05 04:24:01;;;;;;;2.77;0.40;;;;;;;9.87;100.00;101215.41;2076513;28;20275;-68
2024/01/05 04:25:02;;;;;;;1.53;0.73;;;;;;;9.82;100.00;101213.91;2076222;28;20487;-68
2024/01/05 04:26:03;;;;;;;0.77;0.60;;;;;;;9.77;100.00;101203.28;2076278;28;20194;-68
2024/01/05 04:27:04;;;;;;;1.13;0.50;;;;;;;9.84;100.00;101210.72;2076286;28;20650;-68
2024/01/05 04:28:04;;;;;;;0.50;0.40;;;;;;;8.75;100.00;101053.44;2076501;28;20182;-68
2024/01/05 04:29:05;;;;;;;1.67;0.60;;;;;;;9.16;100.00;101121.34;2077211;28;20227;-68
2024/01/05 04:30:06;;;;;;;1.77;0.70;;;;;;;9.78;100.00;101209.63;2076136;28;20246;-68
2024/01/05 04:31:06;;;;;;;1.23;0.57;;;;;;;9.73;100.00;101216.38;2075257;28;20649;-68
2024/01/05 04:32:07;;;;;;;0.80;0.40;;;;;;;9.80;100.00;101216.31;2076352;28;20451;-68
2024/01/05 04:33:07;;;;;;;0.50;0.40;;;;;;;9.81;100.00;101225.38;2076711;28;20249;-68
2024/01/05 04:34:08;;;;;;;1.53;0.40;;;;;;;9.79;100.00;101220.25;2076687;28;20220;-68
2024/01/05 04:35:08;;;;;;;1.27;0.60;;;;;;;9.83;100.00;101217.44;2077509;28;20211;-67
2024/01/05 04:36:10;;;;;;;1.10;0.40;;;;;;;9.27;100.00;101160.72;2076020;28;20189;-68
2024/01/05 04:37:10;;;;;;;0.50;0.40;;;;;;;9.74;100.00;101229.00;2075348;28;20229;-68
2024/01/05 04:38:11;;;;;;;0.53;0.50;;;;;;;9.80;100.00;101230.16;2075598;28;20505;-67
2024/01/05 04:39:12;;;;;;;0.50;0.30;;;;;;;9.78;100.00;101226.22;2076016;28;20205;-67
2024/01/05 04:40:13;;;;;;;0.90;0.47;;;;;;;9.78;100.00;101235.28;2076154;28;20220;-68
2024/01/05 04:41:18;;;;;;;1.73;0.70;;;;;;;9.79;100.00;101233.31;2077707;28;20440;-68
2024/01/05 04:42:18;;;;;;;1.00;0.60;;;;;;;9.78;100.00;101224.22;2076345;28;20556;-68
2024/01/05 04:43:19;;;;;;;0.87;0.50;;;;;;;8.96;100.00;101103.78;2077442;28;20541;-67